sensor_id;sensor_type;location;lat;lon;timestamp;temperature;humidity
49184;DHT22;35021;49.214;12.270;2022-10-30T00:00:44;21.30;49.90
49184;DHT22;35021;49.214;12.270;2022-10-30T00:03:13;21.30;49.90
49184;DHT22;35021;49.214;12.270;2022-10-30T00:05:46;21.30;49.90
49184;DHT22;35021;49.214;12.270;2022-10-30T00:08:17;21.30;49.90
49184;DHT22;35021;49.214;12.270;2022-10-30T00:10:45;21.30;49.80
49184;DHT22;35021;49.214;12.270;2022-10-30T00:13:12;21.30;49.90
49184;DHT22;35021;49.214;12.270;2022-10-30T00:15:39;21.30;49.80
49184;DHT22;35021;49.214;12.270;2022-10-30T00:18:11;21.30;49.80
49184;DHT22;35021;49.214;12.270;2022-10-30T00:20:39;21.30;49.80
49184;DHT22;35021;49.214;12.270;2022-10-30T00:23:05;21.30;50.50
49184;DHT22;35021;49.214;12.270;2022-10-30T00:25:34;21.30;49.80
49184;DHT22;35021;49.214;12.270;2022-10-30T00:28:03;21.30;49.70
49184;DHT22;35021;49.214;12.270;2022-10-30T00:30:31;21.30;49.70
49184;DHT22;35021;49.214;12.270;2022-10-30T00:32:58;21.30;49.70
49184;DHT22;35021;49.214;12.270;2022-10-30T00:35:25;21.30;49.70
49184;DHT22;35021;49.214;12.270;2022-10-30T00:37:52;21.30;49.70
49184;DHT22;35021;49.214;12.270;2022-10-30T00:40:19;21.30;49.80
49184;DHT22;35021;49.214;12.270;2022-10-30T00:42:46;21.30;49.70
49184;DHT22;35021;49.214;12.270;2022-10-30T00:45:15;21.30;49.70
49184;DHT22;35021;49.214;12.270;2022-10-30T00:47:45;21.30;49.70
49184;DHT22;35021;49.214;12.270;2022-10-30T00:50:20;21.30;49.70
49184;DHT22;35021;49.214;12.270;2022-10-30T00:53:11;21.30;49.70
49184;DHT22;35021;49.214;12.270;2022-10-30T00:55:49;21.30;49.70
49184;DHT22;35021;49.214;12.270;2022-10-30T00:58:25;21.30;49.70
49184;DHT22;35021;49.214;12.270;2022-10-30T01:00:55;21.40;50.40
49184;DHT22;35021;49.214;12.270;2022-10-30T01:03:24;21.30;49.70
49184;DHT22;35021;49.214;12.270;2022-10-30T01:05:56;21.40;49.80
49184;DHT22;35021;49.214;12.270;2022-10-30T01:08:24;21.30;49.70
49184;DHT22;35021;49.214;12.270;2022-10-30T01:10:51;21.40;49.70
49184;DHT22;35021;49.214;12.270;2022-10-30T01:13:19;21.30;49.70
49184;DHT22;35021;49.214;12.270;2022-10-30T01:38:43;21.30;49.60
49184;DHT22;35021;49.214;12.270;2022-10-30T01:41:13;21.40;49.70
49184;DHT22;35021;49.214;12.270;2022-10-30T01:43:40;21.30;49.70
49184;DHT22;35021;49.214;12.270;2022-10-30T01:49:23;21.30;49.70
49184;DHT22;35021;49.214;12.270;2022-10-30T01:54:38;21.30;49.80
49184;DHT22;35021;49.214;12.270;2022-10-30T02:00:14;21.20;49.90
49184;DHT22;35021;49.214;12.270;2022-10-30T02:02:42;21.20;50.00
49184;DHT22;35021;49.214;12.270;2022-10-30T02:05:18;21.20;50.00
49184;DHT22;35021;49.214;12.270;2022-10-30T02:07:45;21.20;50.00
49184;DHT22;35021;49.214;12.270;2022-10-30T02:10:12;21.20;50.00
49184;DHT22;35021;49.214;12.270;2022-10-30T02:12:39;21.20;50.00
49184;DHT22;35021;49.214;12.270;2022-10-30T02:15:07;21.20;50.00
49184;DHT22;35021;49.214;12.270;2022-10-30T02:17:34;21.20;50.00
49184;DHT22;35021;49.214;12.270;2022-10-30T02:20:01;21.20;50.00
49184;DHT22;35021;49.214;12.270;2022-10-30T02:22:28;21.20;50.00
49184;DHT22;35021;49.214;12.270;2022-10-30T02:24:55;21.20;50.00
49184;DHT22;35021;49.214;12.270;2022-10-30T02:27:22;21.20;50.00
49184;DHT22;35021;49.214;12.270;2022-10-30T02:29:49;21.20;50.00
49184;DHT22;35021;49.214;12.270;2022-10-30T02:32:16;21.20;50.00
49184;DHT22;35021;49.214;12.270;2022-10-30T02:34:43;21.20;50.70
49184;DHT22;35021;49.214;12.270;2022-10-30T02:37:09;21.20;49.90
49184;DHT22;35021;49.214;12.270;2022-10-30T02:39:37;21.20;49.90
49184;DHT22;35021;49.214;12.270;2022-10-30T02:42:04;21.20;50.00
49184;DHT22;35021;49.214;12.270;2022-10-30T02:44:31;21.20;49.90
49184;DHT22;35021;49.214;12.270;2022-10-30T02:46:59;21.20;49.90
49184;DHT22;35021;49.214;12.270;2022-10-30T02:49:26;21.20;49.90
49184;DHT22;35021;49.214;12.270;2022-10-30T02:51:53;21.20;50.00
49184;DHT22;35021;49.214;12.270;2022-10-30T02:54:20;21.20;50.00
49184;DHT22;35021;49.214;12.270;2022-10-30T02:56:48;21.20;50.00
49184;DHT22;35021;49.214;12.270;2022-10-30T02:59:15;21.20;50.00
49184;DHT22;35021;49.214;12.270;2022-10-30T03:01:42;21.20;50.00
49184;DHT22;35021;49.214;12.270;2022-10-30T03:04:09;21.20;50.00
49184;DHT22;35021;49.214;12.270;2022-10-30T03:06:36;21.20;50.00
49184;DHT22;35021;49.214;12.270;2022-10-30T03:09:03;21.20;50.00
49184;DHT22;35021;49.214;12.270;2022-10-30T03:11:32;21.20;50.00
49184;DHT22;35021;49.214;12.270;2022-10-30T03:13:59;21.20;50.00
49184;DHT22;35021;49.214;12.270;2022-10-30T03:16:27;21.20;50.00
49184;DHT22;35021;49.214;12.270;2022-10-30T03:18:57;21.20;50.00
49184;DHT22;35021;49.214;12.270;2022-10-30T03:21:26;21.20;50.00
49184;DHT22;35021;49.214;12.270;2022-10-30T03:23:54;21.20;50.00
49184;DHT22;35021;49.214;12.270;2022-10-30T03:26:21;21.20;50.00
49184;DHT22;35021;49.214;12.270;2022-10-30T03:28:48;21.20;50.00
49184;DHT22;35021;49.214;12.270;2022-10-30T03:31:17;21.20;50.00
49184;DHT22;35021;49.214;12.270;2022-10-30T03:33:44;21.20;50.00
49184;DHT22;35021;49.214;12.270;2022-10-30T03:36:12;21.20;50.10
49184;DHT22;35021;49.214;12.270;2022-10-30T03:38:40;21.20;50.10
49184;DHT22;35021;49.214;12.270;2022-10-30T03:41:07;21.20;50.10
49184;DHT22;35021;49.214;12.270;2022-10-30T03:43:34;21.20;50.10
49184;DHT22;35021;49.214;12.270;2022-10-30T03:46:01;21.20;50.00
49184;DHT22;35021;49.214;12.270;2022-10-30T03:48:28;21.20;50.00
49184;DHT22;35021;49.214;12.270;2022-10-30T03:50:57;21.20;50.10
49184;DHT22;35021;49.214;12.270;2022-10-30T03:53:24;21.20;50.00
49184;DHT22;35021;49.214;12.270;2022-10-30T03:55:55;21.20;50.00
49184;DHT22;35021;49.214;12.270;2022-10-30T03:58:22;21.20;50.00
49184;DHT22;35021;49.214;12.270;2022-10-30T04:00:49;21.20;50.00
49184;DHT22;35021;49.214;12.270;2022-10-30T04:03:16;21.20;50.00
49184;DHT22;35021;49.214;12.270;2022-10-30T04:05:42;21.20;49.90
49184;DHT22;35021;49.214;12.270;2022-10-30T04:08:13;21.20;50.00
49184;DHT22;35021;49.214;12.270;2022-10-30T04:10:42;21.20;50.60
49184;DHT22;35021;49.214;12.270;2022-10-30T04:13:11;21.20;50.00
49184;DHT22;35021;49.214;12.270;2022-10-30T04:15:38;21.20;50.00
49184;DHT22;35021;49.214;12.270;2022-10-30T04:18:05;21.20;50.00
49184;DHT22;35021;49.214;12.270;2022-10-30T04:20:32;21.20;50.00
49184;DHT22;35021;49.214;12.270;2022-10-30T04:23:02;21.20;50.00
49184;DHT22;35021;49.214;12.270;2022-10-30T04:25:29;21.20;50.00
49184;DHT22;35021;49.214;12.270;2022-10-30T04:27:56;21.20;49.90
49184;DHT22;35021;49.214;12.270;2022-10-30T04:30:24;21.20;50.00
49184;DHT22;35021;49.214;12.270;2022-10-30T04:32:56;21.20;49.90
49184;DHT22;35021;49.214;12.270;2022-10-30T04:35:25;21.20;50.50
49184;DHT22;35021;49.214;12.270;2022-10-30T04:37:53;21.20;49.80
49184;DHT22;35021;49.214;12.270;2022-10-30T04:40:21;21.20;49.70
49184;DHT22;35021;49.214;12.270;2022-10-30T04:42:48;21.20;49.70
49184;DHT22;35021;49.214;12.270;2022-10-30T04:45:15;21.20;49.70
49184;DHT22;35021;49.214;12.270;2022-10-30T04:47:42;21.20;49.60
49184;DHT22;35021;49.214;12.270;2022-10-30T04:50:09;21.20;49.60
49184;DHT22;35021;49.214;12.270;2022-10-30T04:52:36;21.20;49.60
49184;DHT22;35021;49.214;12.270;2022-10-30T04:55:04;21.20;49.50
49184;DHT22;35021;49.214;12.270;2022-10-30T04:57:31;21.20;49.50
49184;DHT22;35021;49.214;12.270;2022-10-30T04:59:58;21.10;49.40
49184;DHT22;35021;49.214;12.270;2022-10-30T05:02:25;21.10;49.50
49184;DHT22;35021;49.214;12.270;2022-10-30T05:04:52;21.10;49.50
49184;DHT22;35021;49.214;12.270;2022-10-30T05:07:19;21.10;49.50
49184;DHT22;35021;49.214;12.270;2022-10-30T05:09:46;21.10;49.60
49184;DHT22;35021;49.214;12.270;2022-10-30T05:12:13;21.10;49.70
49184;DHT22;35021;49.214;12.270;2022-10-30T05:14:40;21.10;49.70
49184;DHT22;35021;49.214;12.270;2022-10-30T05:17:07;21.10;49.60
49184;DHT22;35021;49.214;12.270;2022-10-30T05:19:34;21.10;49.50
49184;DHT22;35021;49.214;12.270;2022-10-30T05:22:01;21.20;49.40
49184;DHT22;35021;49.214;12.270;2022-10-30T05:24:28;21.20;49.20
49184;DHT22;35021;49.214;12.270;2022-10-30T05:26:54;21.30;49.10
49184;DHT22;35021;49.214;12.270;2022-10-30T05:29:21;21.40;48.90
49184;DHT22;35021;49.214;12.270;2022-10-30T05:31:48;21.40;49.40
49184;DHT22;35021;49.214;12.270;2022-10-30T05:34:15;21.50;48.40
49184;DHT22;35021;49.214;12.270;2022-10-30T05:36:41;21.60;48.30
49184;DHT22;35021;49.214;12.270;2022-10-30T05:39:08;21.70;48.20
49184;DHT22;35021;49.214;12.270;2022-10-30T05:41:35;21.80;47.90
49184;DHT22;35021;49.214;12.270;2022-10-30T05:44:02;21.80;47.70
49184;DHT22;35021;49.214;12.270;2022-10-30T05:46:29;21.90;47.50
49184;DHT22;35021;49.214;12.270;2022-10-30T05:48:56;22.00;47.30
49184;DHT22;35021;49.214;12.270;2022-10-30T05:51:22;22.00;47.00
49184;DHT22;35021;49.214;12.270;2022-10-30T05:53:49;22.10;46.90
49184;DHT22;35021;49.214;12.270;2022-10-30T05:56:16;22.10;46.80
49184;DHT22;35021;49.214;12.270;2022-10-30T05:58:43;22.10;46.70
49184;DHT22;35021;49.214;12.270;2022-10-30T06:01:10;22.10;46.70
49184;DHT22;35021;49.214;12.270;2022-10-30T06:03:36;22.10;46.80
49184;DHT22;35021;49.214;12.270;2022-10-30T06:06:03;22.10;46.90
49184;DHT22;35021;49.214;12.270;2022-10-30T06:08:30;22.00;47.00
49184;DHT22;35021;49.214;12.270;2022-10-30T06:10:57;21.90;47.00
49184;DHT22;35021;49.214;12.270;2022-10-30T06:13:24;21.90;47.10
49184;DHT22;35021;49.214;12.270;2022-10-30T06:15:54;21.80;47.00
49184;DHT22;35021;49.214;12.270;2022-10-30T06:18:22;21.90;47.00
49184;DHT22;35021;49.214;12.270;2022-10-30T06:20:49;21.90;46.90
49184;DHT22;35021;49.214;12.270;2022-10-30T06:23:16;21.90;46.80
49184;DHT22;35021;49.214;12.270;2022-10-30T06:25:43;22.00;46.80
49184;DHT22;35021;49.214;12.270;2022-10-30T06:28:10;22.00;46.70
49184;DHT22;35021;49.214;12.270;2022-10-30T06:30:39;22.00;46.70
49184;DHT22;35021;49.214;12.270;2022-10-30T06:33:06;22.10;46.60
49184;DHT22;35021;49.214;12.270;2022-10-30T06:35:33;22.10;46.60
49184;DHT22;35021;49.214;12.270;2022-10-30T06:38:00;22.10;46.50
49184;DHT22;35021;49.214;12.270;2022-10-30T06:40:27;22.00;46.50
49184;DHT22;35021;49.214;12.270;2022-10-30T06:42:56;22.00;46.50
49184;DHT22;35021;49.214;12.270;2022-10-30T06:45:23;22.00;46.60
49184;DHT22;35021;49.214;12.270;2022-10-30T06:47:50;21.90;46.70
49184;DHT22;35021;49.214;12.270;2022-10-30T06:50:19;21.90;46.80
49184;DHT22;35021;49.214;12.270;2022-10-30T06:52:47;21.80;46.90
49184;DHT22;35021;49.214;12.270;2022-10-30T06:55:15;21.80;46.90
49184;DHT22;35021;49.214;12.270;2022-10-30T06:57:42;21.80;47.10
49184;DHT22;35021;49.214;12.270;2022-10-30T07:00:09;21.80;47.10
49184;DHT22;35021;49.214;12.270;2022-10-30T07:02:36;21.80;47.00
49184;DHT22;35021;49.214;12.270;2022-10-30T07:05:03;21.80;47.00
49184;DHT22;35021;49.214;12.270;2022-10-30T07:07:30;21.90;47.00
49184;DHT22;35021;49.214;12.270;2022-10-30T07:09:57;21.90;46.90
49184;DHT22;35021;49.214;12.270;2022-10-30T07:12:24;21.90;46.80
49184;DHT22;35021;49.214;12.270;2022-10-30T07:14:51;22.00;46.90
49184;DHT22;35021;49.214;12.270;2022-10-30T07:17:17;22.00;46.80
49184;DHT22;35021;49.214;12.270;2022-10-30T07:19:44;22.00;46.80
49184;DHT22;35021;49.214;12.270;2022-10-30T07:22:11;22.10;46.80
49184;DHT22;35021;49.214;12.270;2022-10-30T07:24:38;22.10;46.80
49184;DHT22;35021;49.214;12.270;2022-10-30T07:27:04;22.10;46.80
49184;DHT22;35021;49.214;12.270;2022-10-30T07:29:31;22.10;47.00
49184;DHT22;35021;49.214;12.270;2022-10-30T07:31:58;22.00;47.00
49184;DHT22;35021;49.214;12.270;2022-10-30T07:34:29;22.00;47.20
49184;DHT22;35021;49.214;12.270;2022-10-30T07:36:56;21.90;47.20
49184;DHT22;35021;49.214;12.270;2022-10-30T07:39:23;21.90;47.40
49184;DHT22;35021;49.214;12.270;2022-10-30T07:41:50;21.90;47.50
49184;DHT22;35021;49.214;12.270;2022-10-30T07:44:17;21.90;47.80
49184;DHT22;35021;49.214;12.270;2022-10-30T07:46:44;21.90;47.80
49184;DHT22;35021;49.214;12.270;2022-10-30T07:49:11;21.90;47.80
49184;DHT22;35021;49.214;12.270;2022-10-30T07:51:37;21.90;47.80
49184;DHT22;35021;49.214;12.270;2022-10-30T07:54:04;21.90;47.90
49184;DHT22;35021;49.214;12.270;2022-10-30T07:56:31;22.00;47.80
49184;DHT22;35021;49.214;12.270;2022-10-30T07:58:58;22.00;47.80
49184;DHT22;35021;49.214;12.270;2022-10-30T08:01:25;22.10;47.80
49184;DHT22;35021;49.214;12.270;2022-10-30T08:03:52;22.10;47.80
49184;DHT22;35021;49.214;12.270;2022-10-30T08:06:19;22.20;47.80
49184;DHT22;35021;49.214;12.270;2022-10-30T08:08:52;22.20;47.80
49184;DHT22;35021;49.214;12.270;2022-10-30T08:11:18;22.20;47.80
49184;DHT22;35021;49.214;12.270;2022-10-30T08:13:45;22.20;47.90
49184;DHT22;35021;49.214;12.270;2022-10-30T08:16:12;22.10;48.00
49184;DHT22;35021;49.214;12.270;2022-10-30T08:18:39;22.10;48.10
49184;DHT22;35021;49.214;12.270;2022-10-30T08:21:08;22.00;48.30
49184;DHT22;35021;49.214;12.270;2022-10-30T08:23:35;22.00;48.40
49184;DHT22;35021;49.214;12.270;2022-10-30T08:26:02;22.00;48.50
49184;DHT22;35021;49.214;12.270;2022-10-30T08:28:31;22.00;48.60
49184;DHT22;35021;49.214;12.270;2022-10-30T08:30:59;22.00;48.50
49184;DHT22;35021;49.214;12.270;2022-10-30T08:33:27;22.10;48.60
49184;DHT22;35021;49.214;12.270;2022-10-30T08:35:56;22.10;48.60
49184;DHT22;35021;49.214;12.270;2022-10-30T08:38:24;22.10;48.50
49184;DHT22;35021;49.214;12.270;2022-10-30T08:40:51;22.20;48.60
49184;DHT22;35021;49.214;12.270;2022-10-30T08:43:18;22.20;48.60
49184;DHT22;35021;49.214;12.270;2022-10-30T08:45:45;22.20;48.60
49184;DHT22;35021;49.214;12.270;2022-10-30T08:48:13;22.30;48.60
49184;DHT22;35021;49.214;12.270;2022-10-30T08:50:41;22.20;48.60
49184;DHT22;35021;49.214;12.270;2022-10-30T08:53:12;22.30;48.80
49184;DHT22;35021;49.214;12.270;2022-10-30T08:55:40;22.20;48.80
49184;DHT22;35021;49.214;12.270;2022-10-30T08:58:07;22.20;48.90
49184;DHT22;35021;49.214;12.270;2022-10-30T09:00:34;22.20;49.10
49184;DHT22;35021;49.214;12.270;2022-10-30T09:03:01;22.10;49.20
49184;DHT22;35021;49.214;12.270;2022-10-30T09:05:29;22.10;49.40
49184;DHT22;35021;49.214;12.270;2022-10-30T09:07:57;22.10;49.50
49184;DHT22;35021;49.214;12.270;2022-10-30T09:10:28;22.10;49.60
49184;DHT22;35021;49.214;12.270;2022-10-30T09:12:57;22.10;49.80
49184;DHT22;35021;49.214;12.270;2022-10-30T09:15:25;22.10;49.80
49184;DHT22;35021;49.214;12.270;2022-10-30T09:18:00;22.10;49.80
49184;DHT22;35021;49.214;12.270;2022-10-30T09:20:29;22.20;49.90
49184;DHT22;35021;49.214;12.270;2022-10-30T09:22:56;22.20;49.80
49184;DHT22;35021;49.214;12.270;2022-10-30T09:25:24;22.30;49.80
49184;DHT22;35021;49.214;12.270;2022-10-30T09:27:51;22.30;49.70
49184;DHT22;35021;49.214;12.270;2022-10-30T09:30:18;22.40;49.70
49184;DHT22;35021;49.214;12.270;2022-10-30T09:32:45;22.40;49.70
49184;DHT22;35021;49.214;12.270;2022-10-30T09:35:18;22.50;49.70
49184;DHT22;35021;49.214;12.270;2022-10-30T09:37:45;22.40;49.70
49184;DHT22;35021;49.214;12.270;2022-10-30T09:43:22;22.40;49.80
49184;DHT22;35021;49.214;12.270;2022-10-30T09:46:19;22.50;50.00
49184;DHT22;35021;49.214;12.270;2022-10-30T09:49:13;22.50;50.20
49184;DHT22;35021;49.214;12.270;2022-10-30T09:57:20;22.60;50.30
49184;DHT22;35021;49.214;12.270;2022-10-30T10:02:33;22.70;50.20
49184;DHT22;35021;49.214;12.270;2022-10-30T10:05:16;22.70;50.10
49184;DHT22;35021;49.214;12.270;2022-10-30T10:07:51;22.80;50.20
49184;DHT22;35021;49.214;12.270;2022-10-30T10:10:35;22.80;50.20
49184;DHT22;35021;49.214;12.270;2022-10-30T10:13:04;22.90;50.30
49184;DHT22;35021;49.214;12.270;2022-10-30T10:15:40;23.00;50.50
49184;DHT22;35021;49.214;12.270;2022-10-30T10:18:16;23.10;50.30
49184;DHT22;35021;49.214;12.270;2022-10-30T10:20:47;23.10;50.20
49184;DHT22;35021;49.214;12.270;2022-10-30T10:23:18;23.10;50.20
49184;DHT22;35021;49.214;12.270;2022-10-30T10:25:52;23.10;50.20
49184;DHT22;35021;49.214;12.270;2022-10-30T10:28:38;23.10;50.30
49184;DHT22;35021;49.214;12.270;2022-10-30T10:34:17;23.10;50.50
49184;DHT22;35021;49.214;12.270;2022-10-30T10:37:12;23.00;50.70
49184;DHT22;35021;49.214;12.270;2022-10-30T10:51:06;22.80;51.20
49184;DHT22;35021;49.214;12.270;2022-10-30T10:54:35;22.70;51.30
49184;DHT22;35021;49.214;12.270;2022-10-30T10:56:45;22.70;51.40
49184;DHT22;35021;49.214;12.270;2022-10-30T10:59:22;22.70;51.50
49184;DHT22;35021;49.214;12.270;2022-10-30T11:01:56;22.60;51.50
49184;DHT22;35021;49.214;12.270;2022-10-30T11:04:37;22.60;51.60
49184;DHT22;35021;49.214;12.270;2022-10-30T11:07:35;22.60;51.70
49184;DHT22;35021;49.214;12.270;2022-10-30T11:10:12;22.60;51.80
49184;DHT22;35021;49.214;12.270;2022-10-30T11:12:40;22.60;51.90
49184;DHT22;35021;49.214;12.270;2022-10-30T11:15:38;22.60;51.90
49184;DHT22;35021;49.214;12.270;2022-10-30T11:18:07;22.50;52.00
49184;DHT22;35021;49.214;12.270;2022-10-30T11:20:47;22.50;52.00
49184;DHT22;35021;49.214;12.270;2022-10-30T11:23:45;22.50;52.10
49184;DHT22;35021;49.214;12.270;2022-10-30T11:31:33;22.50;52.10
49184;DHT22;35021;49.214;12.270;2022-10-30T11:36:45;22.50;52.20
49184;DHT22;35021;49.214;12.270;2022-10-30T11:39:28;22.50;52.20
49184;DHT22;35021;49.214;12.270;2022-10-30T11:42:05;22.50;52.20
49184;DHT22;35021;49.214;12.270;2022-10-30T11:44:33;22.50;52.10
49184;DHT22;35021;49.214;12.270;2022-10-30T11:47:01;22.50;52.00
49184;DHT22;35021;49.214;12.270;2022-10-30T11:49:34;22.60;52.00
49184;DHT22;35021;49.214;12.270;2022-10-30T11:52:03;22.50;51.90
49184;DHT22;35021;49.214;12.270;2022-10-30T11:54:35;22.60;51.80
49184;DHT22;35021;49.214;12.270;2022-10-30T11:57:03;22.60;51.80
49184;DHT22;35021;49.214;12.270;2022-10-30T11:59:30;22.60;52.50
49184;DHT22;35021;49.214;12.270;2022-10-30T12:02:03;22.60;51.70
49184;DHT22;35021;49.214;12.270;2022-10-30T12:04:44;22.60;51.70
49184;DHT22;35021;49.214;12.270;2022-10-30T12:09:49;22.70;51.70
49184;DHT22;35021;49.214;12.270;2022-10-30T12:12:23;22.70;51.70
49184;DHT22;35021;49.214;12.270;2022-10-30T12:14:52;22.70;51.70
49184;DHT22;35021;49.214;12.270;2022-10-30T12:17:21;22.70;51.60
49184;DHT22;35021;49.214;12.270;2022-10-30T12:19:50;22.70;51.60
49184;DHT22;35021;49.214;12.270;2022-10-30T12:22:28;22.70;51.70
49184;DHT22;35021;49.214;12.270;2022-10-30T12:25:04;22.70;51.60
49184;DHT22;35021;49.214;12.270;2022-10-30T12:27:35;22.70;51.60
49184;DHT22;35021;49.214;12.270;2022-10-30T12:30:18;22.80;51.70
49184;DHT22;35021;49.214;12.270;2022-10-30T12:33:06;22.70;51.70
49184;DHT22;35021;49.214;12.270;2022-10-30T12:41:21;22.70;51.90
49184;DHT22;35021;49.214;12.270;2022-10-30T12:44:06;22.70;51.90
49184;DHT22;35021;49.214;12.270;2022-10-30T12:49:30;22.70;51.90
49184;DHT22;35021;49.214;12.270;2022-10-30T12:52:04;22.70;51.90
49184;DHT22;35021;49.214;12.270;2022-10-30T12:54:44;22.70;51.90
49184;DHT22;35021;49.214;12.270;2022-10-30T12:57:18;22.70;52.60
49184;DHT22;35021;49.214;12.270;2022-10-30T13:00:00;22.70;51.90
49184;DHT22;35021;49.214;12.270;2022-10-30T13:02:35;22.70;51.80
49184;DHT22;35021;49.214;12.270;2022-10-30T13:05:40;22.70;51.70
49184;DHT22;35021;49.214;12.270;2022-10-30T13:13:41;22.70;51.50
49184;DHT22;35021;49.214;12.270;2022-10-30T13:16:27;22.70;51.50
49184;DHT22;35021;49.214;12.270;2022-10-30T13:18:56;22.70;51.40
49184;DHT22;35021;49.214;12.270;2022-10-30T13:27:06;22.70;51.50
49184;DHT22;35021;49.214;12.270;2022-10-30T13:32:30;22.60;51.70
49184;DHT22;35021;49.214;12.270;2022-10-30T13:35:24;22.60;51.80
49184;DHT22;35021;49.214;12.270;2022-10-30T13:40:45;22.60;51.90
49184;DHT22;35021;49.214;12.270;2022-10-30T13:43:39;22.60;52.00
49184;DHT22;35021;49.214;12.270;2022-10-30T13:46:24;22.60;52.10
49184;DHT22;35021;49.214;12.270;2022-10-30T13:57:00;22.50;52.20
49184;DHT22;35021;49.214;12.270;2022-10-30T13:59:52;22.40;52.20
49184;DHT22;35021;49.214;12.270;2022-10-30T14:11:05;22.50;52.20
49184;DHT22;35021;49.214;12.270;2022-10-30T14:17:07;22.50;52.20
49184;DHT22;35021;49.214;12.270;2022-10-30T14:22:39;22.50;52.40
49184;DHT22;35021;49.214;12.270;2022-10-30T14:25:15;22.50;52.40
49184;DHT22;35021;49.214;12.270;2022-10-30T14:27:42;22.50;52.50
49184;DHT22;35021;49.214;12.270;2022-10-30T14:30:17;22.50;52.60
49184;DHT22;35021;49.214;12.270;2022-10-30T14:32:50;22.50;52.70
49184;DHT22;35021;49.214;12.270;2022-10-30T14:35:33;22.50;52.80
49184;DHT22;35021;49.214;12.270;2022-10-30T14:40:54;22.60;53.00
49184;DHT22;35021;49.214;12.270;2022-10-30T14:46:22;22.60;53.30
49184;DHT22;35021;49.214;12.270;2022-10-30T14:48:56;22.60;53.30
49184;DHT22;35021;49.214;12.270;2022-10-30T14:51:29;22.60;53.30
49184;DHT22;35021;49.214;12.270;2022-10-30T14:56:48;22.60;53.40
49184;DHT22;35021;49.214;12.270;2022-10-30T15:05:01;22.60;53.70
49184;DHT22;35021;49.214;12.270;2022-10-30T15:07:43;22.60;53.80
49184;DHT22;35021;49.214;12.270;2022-10-30T15:15:29;22.60;54.10
49184;DHT22;35021;49.214;12.270;2022-10-30T15:18:00;22.60;54.20
49184;DHT22;35021;49.214;12.270;2022-10-30T15:20:31;22.60;54.20
49184;DHT22;35021;49.214;12.270;2022-10-30T15:23:28;22.60;54.30
49184;DHT22;35021;49.214;12.270;2022-10-30T15:25:58;22.60;54.50
49184;DHT22;35021;49.214;12.270;2022-10-30T15:28:33;22.50;54.40
49184;DHT22;35021;49.214;12.270;2022-10-30T15:33:29;22.50;54.60
49184;DHT22;35021;49.214;12.270;2022-10-30T15:36:01;22.40;54.70
49184;DHT22;35021;49.214;12.270;2022-10-30T15:38:28;22.40;54.80
49184;DHT22;35021;49.214;12.270;2022-10-30T15:41:01;22.40;54.90
49184;DHT22;35021;49.214;12.270;2022-10-30T15:43:31;22.40;55.00
49184;DHT22;35021;49.214;12.270;2022-10-30T15:45:59;22.40;55.00
49184;DHT22;35021;49.214;12.270;2022-10-30T15:48:31;22.40;55.00
49184;DHT22;35021;49.214;12.270;2022-10-30T15:51:03;22.30;54.90
49184;DHT22;35021;49.214;12.270;2022-10-30T15:53:38;22.30;55.00
49184;DHT22;35021;49.214;12.270;2022-10-30T15:56:11;22.30;55.00
49184;DHT22;35021;49.214;12.270;2022-10-30T15:58:55;22.30;55.10
49184;DHT22;35021;49.214;12.270;2022-10-30T16:01:31;22.20;55.10
49184;DHT22;35021;49.214;12.270;2022-10-30T16:03:59;22.20;55.10
49184;DHT22;35021;49.214;12.270;2022-10-30T16:06:30;22.20;55.80
49184;DHT22;35021;49.214;12.270;2022-10-30T16:08:57;22.20;55.10
49184;DHT22;35021;49.214;12.270;2022-10-30T16:11:25;22.20;55.10
49184;DHT22;35021;49.214;12.270;2022-10-30T16:13:52;22.10;55.00
49184;DHT22;35021;49.214;12.270;2022-10-30T16:16:28;22.20;55.00
49184;DHT22;35021;49.214;12.270;2022-10-30T16:19:01;22.10;55.00
49184;DHT22;35021;49.214;12.270;2022-10-30T16:21:30;22.10;54.90
49184;DHT22;35021;49.214;12.270;2022-10-30T16:24:00;22.10;54.90
49184;DHT22;35021;49.214;12.270;2022-10-30T16:26:31;22.10;54.80
49184;DHT22;35021;49.214;12.270;2022-10-30T16:31:40;22.10;54.70
49184;DHT22;35021;49.214;12.270;2022-10-30T16:34:11;22.10;54.80
49184;DHT22;35021;49.214;12.270;2022-10-30T16:36:40;22.10;54.70
49184;DHT22;35021;49.214;12.270;2022-10-30T16:39:11;22.10;54.70
49184;DHT22;35021;49.214;12.270;2022-10-30T16:41:39;22.00;54.60
49184;DHT22;35021;49.214;12.270;2022-10-30T16:44:36;22.00;54.70
49184;DHT22;35021;49.214;12.270;2022-10-30T16:49:45;22.00;54.70
49184;DHT22;35021;49.214;12.270;2022-10-30T16:52:15;22.00;54.80
49184;DHT22;35021;49.214;12.270;2022-10-30T16:55:01;22.00;54.70
49184;DHT22;35021;49.214;12.270;2022-10-30T16:57:36;22.00;54.70
49184;DHT22;35021;49.214;12.270;2022-10-30T17:00:04;21.90;54.60
49184;DHT22;35021;49.214;12.270;2022-10-30T17:02:34;21.90;54.60
49184;DHT22;35021;49.214;12.270;2022-10-30T17:05:09;22.00;54.50
49184;DHT22;35021;49.214;12.270;2022-10-30T17:07:37;21.90;54.40
49184;DHT22;35021;49.214;12.270;2022-10-30T17:10:31;21.90;54.30
49184;DHT22;35021;49.214;12.270;2022-10-30T17:16:24;22.00;54.30
49184;DHT22;35021;49.214;12.270;2022-10-30T17:18:53;22.00;54.20
49184;DHT22;35021;49.214;12.270;2022-10-30T17:21:27;22.00;54.10
49184;DHT22;35021;49.214;12.270;2022-10-30T17:23:57;21.90;54.10
49184;DHT22;35021;49.214;12.270;2022-10-30T17:26:28;22.00;54.70
49184;DHT22;35021;49.214;12.270;2022-10-30T17:28:55;22.00;53.90
49184;DHT22;35021;49.214;12.270;2022-10-30T17:34:12;22.00;53.80
49184;DHT22;35021;49.214;12.270;2022-10-30T17:36:39;22.00;53.70
49184;DHT22;35021;49.214;12.270;2022-10-30T17:39:07;21.90;53.70
49184;DHT22;35021;49.214;12.270;2022-10-30T17:41:34;21.90;53.60
49184;DHT22;35021;49.214;12.270;2022-10-30T17:44:01;21.90;53.50
49184;DHT22;35021;49.214;12.270;2022-10-30T17:46:28;21.90;53.60
49184;DHT22;35021;49.214;12.270;2022-10-30T17:48:56;21.90;53.60
49184;DHT22;35021;49.214;12.270;2022-10-30T17:51:25;21.90;53.60
49184;DHT22;35021;49.214;12.270;2022-10-30T17:53:52;21.90;53.60
49184;DHT22;35021;49.214;12.270;2022-10-30T17:56:25;21.90;53.60
49184;DHT22;35021;49.214;12.270;2022-10-30T17:58:53;21.90;54.30
49184;DHT22;35021;49.214;12.270;2022-10-30T18:01:25;21.90;53.50
49184;DHT22;35021;49.214;12.270;2022-10-30T18:03:53;21.90;53.40
49184;DHT22;35021;49.214;12.270;2022-10-30T18:06:23;21.80;53.30